Time;durP1;ratioP1;P1;durP2;ratioP2;P2;SDS_P1;SDS_P2;PMS_P1;PMS_P2;Temp;Humidity;BMP_temperature;BMP_pressure;BME280_temperature;BME280_humidity;BME280_pressure;Samples;Min_cycle;Max_cycle;Signal;HPM_P1;HPM_P2
2022/09/25 00:01:25;;;;;;;13.23;3.78;;;8.60;99.90;;;;;;4968652;28;208147;-73
2022/09/25 00:03:51;;;;;;;11.38;3.65;;;8.50;99.90;;;;;;4985332;28;20064;-73
2022/09/25 00:06:20;;;;;;;15.07;4.10;;;8.60;99.90;;;;;;4962466;28;205356;-74
2022/09/25 00:08:47;;;;;;;12.52;4.28;;;8.60;99.90;;;;;;5003385;28;20053;-74
2022/09/25 00:11:19;;;;;;;17.42;4.10;;;8.60;99.90;;;;;;4943871;28;207265;-73
2022/09/25 00:13:45;;;;;;;14.57;3.70;;;8.60;99.90;;;;;;4985384;28;20049;-73
2022/09/25 00:16:16;;;;;;;16.38;3.63;;;8.60;99.90;;;;;;4958131;28;205048;-73
2022/09/25 00:21:30;;;;;;;18.20;3.65;;;8.50;99.90;;;;;;4969344;28;209252;-73
2022/09/25 00:24:02;;;;;;;14.75;3.70;;;8.50;99.90;;;;;;5000020;28;20054;-73
2022/09/25 00:26:31;;;;;;;12.45;3.58;;;8.50;99.90;;;;;;4973964;28;206828;-73
2022/09/25 00:29:00;;;;;;;15.02;3.50;;;8.50;99.90;;;;;;4995814;28;20064;-73
2022/09/25 00:31:27;;;;;;;14.30;3.10;;;8.50;99.90;;;;;;4963202;28;204147;-73
2022/09/25 00:33:56;;;;;;;12.98;3.53;;;8.50;99.90;;;;;;5002833;28;20053;-73
2022/09/25 00:36:22;;;;;;;13.30;3.60;;;8.40;99.90;;;;;;4962240;28;206960;-74
2022/09/25 00:38:49;;;;;;;15.13;3.38;;;8.40;99.90;;;;;;5022828;28;20065;-74
2022/09/25 00:41:17;;;;;;;13.40;3.33;;;8.40;99.90;;;;;;4952295;28;207118;-74
2022/09/25 00:43:47;;;;;;;9.77;2.75;;;8.40;99.90;;;;;;5023272;28;20427;-73
2022/09/25 00:46:19;;;;;;;15.13;3.45;;;8.30;99.90;;;;;;4959819;28;218585;-74
2022/09/25 00:48:57;;;;;;;10.80;3.10;;;8.20;99.90;;;;;;4992353;28;20046;-73
2022/09/25 00:51:28;;;;;;;11.15;3.00;;;8.20;99.90;;;;;;4971947;28;211872;-73
2022/09/25 00:54:03;;;;;;;9.60;2.97;;;8.10;99.90;;;;;;5000064;28;20424;-73
2022/09/25 00:56:36;;;;;;;15.35;3.38;;;8.10;99.90;;;;;;4964752;28;205209;-73
2022/09/25 00:59:03;;;;;;;9.80;2.85;;;8.00;99.90;;;;;;5008072;28;20061;-73
2022/09/25 01:01:29;;;;;;;11.63;3.30;;;8.00;99.90;;;;;;4975571;28;206669;-73
2022/09/25 01:03:56;;;;;;;8.63;2.72;;;8.00;99.90;;;;;;5003366;28;20049;-73
2022/09/25 01:06:25;;;;;;;12.70;3.40;;;8.00;99.90;;;;;;4961863;28;212243;-73
2022/09/25 01:08:51;;;;;;;13.35;3.17;;;7.90;99.90;;;;;;5001286;28;20060;-73
2022/09/25 01:11:17;;;;;;;13.48;3.30;;;7.90;99.90;;;;;;4940101;28;219073;-73
2022/09/25 01:13:43;;;;;;;12.27;3.53;;;7.80;99.90;;;;;;5000751;28;20045;-73
2022/09/25 01:16:44;;;;;;;11.60;3.50;;;7.80;99.90;;;;;;4958842;28;214524;-74
2022/09/25 01:19:32;;;;;;;10.60;2.90;;;7.80;99.90;;;;;;4992370;28;20041;-73
2022/09/25 01:22:07;;;;;;;17.90;3.30;;;7.80;99.90;;;;;;4975662;28;206554;-73
2022/09/25 01:24:54;;;;;;;10.63;3.10;;;7.70;99.90;;;;;;5018984;28;20049;-73
2022/09/25 01:27:46;;;;;;;12.02;3.45;;;7.70;99.90;;;;;;4955251;28;206898;-73
2022/09/25 01:30:17;;;;;;;9.48;2.78;;;7.70;99.90;;;;;;4967122;28;218963;-74
2022/09/25 01:33:12;;;;;;;11.43;3.40;;;7.60;99.90;;;;;;4970279;28;205864;-73
2022/09/25 01:36:26;;;;;;;11.23;3.30;;;7.60;99.90;;;;;;4971697;28;206824;-74
2022/09/25 01:39:06;;;;;;;11.75;3.72;;;7.60;99.90;;;;;;4958821;28;20053;-73
2022/09/25 01:41:36;;;;;;;11.47;4.23;;;7.60;99.90;;;;;;4936534;28;203356;-74
2022/09/25 01:44:18;;;;;;;11.50;3.92;;;7.60;99.90;;;;;;4960004;28;20042;-74
2022/09/25 01:46:54;;;;;;;12.95;3.65;;;7.60;99.90;;;;;;4949110;28;208093;-74
2022/09/25 01:49:36;;;;;;;13.10;4.07;;;7.60;99.90;;;;;;4994410;28;20050;-73
2022/09/25 01:52:09;;;;;;;13.70;4.20;;;7.70;99.90;;;;;;4931005;28;206394;-73
2022/09/25 01:54:50;;;;;;;10.40;4.07;;;7.80;99.90;;;;;;4993745;28;20054;-73
2022/09/25 01:57:19;;;;;;;13.43;3.90;;;7.80;99.90;;;;;;4952503;28;217475;-74
2022/09/25 02:00:05;;;;;;;12.10;4.00;;;7.70;99.90;;;;;;4991727;28;20061;-73
2022/09/25 02:02:38;;;;;;;12.98;4.30;;;7.70;99.90;;;;;;4954935;28;207421;-73
2022/09/25 02:05:08;;;;;;;11.32;3.97;;;7.70;99.90;;;;;;4977121;28;20061;-73
2022/09/25 02:07:41;;;;;;;11.20;3.95;;;7.70;99.90;;;;;;4943379;28;177736;-73
2022/09/25 02:10:15;;;;;;;13.15;4.00;;;7.70;99.90;;;;;;4986860;28;20495;-73
2022/09/25 02:12:48;;;;;;;10.43;3.80;;;7.60;99.90;;;;;;4960868;28;207930;-73
2022/09/25 02:15:18;;;;;;;12.57;3.77;;;7.60;99.90;;;;;;4959347;28;214332;-74
2022/09/25 02:20:35;;;;;;;12.70;3.78;;;7.60;99.90;;;;;;4951951;28;209548;-73
2022/09/25 02:23:17;;;;;;;9.55;3.20;;;7.60;99.90;;;;;;4987808;28;20057;-74
2022/09/25 02:26:07;;;;;;;11.95;3.65;;;7.50;99.90;;;;;;4957372;28;207338;-74
2022/09/25 02:28:34;;;;;;;12.70;3.45;;;7.50;99.90;;;;;;5000708;28;20061;-73
2022/09/25 02:31:05;;;;;;;15.35;3.50;;;7.40;99.90;;;;;;4956035;28;215357;-73
2022/09/25 02:33:32;;;;;;;10.20;3.03;;;7.40;99.90;;;;;;4995050;28;20046;-74
2022/09/25 02:36:01;;;;;;;10.98;3.22;;;7.30;99.90;;;;;;4966561;28;209645;-73
2022/09/25 02:38:29;;;;;;;11.80;3.53;;;7.30;99.90;;;;;;5001137;28;20069;-74
2022/09/25 02:41:25;;;;;;;14.05;3.60;;;7.30;99.90;;;;;;4964668;28;206352;-73
2022/09/25 02:44:22;;;;;;;14.43;3.53;;;7.20;99.90;;;;;;4993404;28;20057;-73
2022/09/25 02:47:12;;;;;;;14.95;3.47;;;7.20;99.90;;;;;;4953611;28;214721;-73
2022/09/25 02:49:54;;;;;;;11.15;4.00;;;7.20;99.90;;;;;;5023415;28;20054;-73
2022/09/25 02:52:39;;;;;;;11.65;3.75;;;7.20;99.90;;;;;;4954836;28;210278;-74
2022/09/25 02:55:11;;;;;;;15.20;4.22;;;7.20;99.90;;;;;;4999968;28;20046;-73
2022/09/25 02:57:52;;;;;;;14.43;4.18;;;7.20;99.90;;;;;;4954278;28;204285;-73
2022/09/25 03:00:22;;;;;;;14.23;4.55;;;7.20;99.90;;;;;;4973472;28;209045;-74
2022/09/25 03:02:52;;;;;;;15.85;4.20;;;7.20;99.90;;;;;;5005102;28;20050;-74
2022/09/25 03:05:20;;;;;;;13.57;3.83;;;7.30;99.90;;;;;;4955657;28;211042;-73
2022/09/25 03:10:34;;;;;;;12.73;4.13;;;7.20;99.90;;;;;;4973889;28;215787;-73
2022/09/25 03:13:15;;;;;;;12.15;4.03;;;7.20;99.90;;;;;;5006454;28;20065;-74
2022/09/25 03:15:45;;;;;;;12.97;3.20;;;7.20;99.90;;;;;;4964226;28;210660;-73
2022/09/25 03:18:13;;;;;;;10.73;3.00;;;7.20;99.90;;;;;;5016552;28;20069;-74
2022/09/25 03:20:40;;;;;;;9.05;3.22;;;7.20;99.90;;;;;;4980642;28;207980;-74
2022/09/25 03:23:06;;;;;;;11.07;3.45;;;7.10;99.90;;;;;;5005973;28;20053;-73
2022/09/25 03:25:33;;;;;;;10.88;3.25;;;7.10;99.90;;;;;;4983995;28;132773;-74
2022/09/25 03:27:59;;;;;;;12.55;3.03;;;7.10;99.90;;;;;;5020272;28;20068;-74
2022/09/25 03:30:28;;;;;;;15.35;3.25;;;7.00;99.90;;;;;;4961373;28;216758;-74
2022/09/25 03:32:55;;;;;;;13.23;3.70;;;7.00;99.90;;;;;;5017986;28;20049;-73
2022/09/25 03:35:21;;;;;;;12.70;3.53;;;7.00;99.90;;;;;;4990896;28;210118;-74
2022/09/25 03:37:47;;;;;;;8.70;2.90;;;7.00;99.90;;;;;;5005560;28;20182;-74
2022/09/25 03:40:13;;;;;;;11.95;3.33;;;7.00;99.90;;;;;;4967731;28;209026;-74
2022/09/25 03:42:42;;;;;;;13.65;3.40;;;7.00;99.90;;;;;;5014877;28;20050;-74
2022/09/25 03:45:09;;;;;;;10.73;3.40;;;7.00;99.90;;;;;;5003672;28;211647;-74
2022/09/25 03:47:35;;;;;;;12.13;3.38;;;7.00;99.90;;;;;;4961534;28;206372;-73
2022/09/25 03:50:01;;;;;;;12.55;3.53;;;7.00;99.90;;;;;;5007304;28;20053;-74
2022/09/25 03:52:27;;;;;;;10.68;3.55;;;7.10;99.90;;;;;;4977804;28;210825;-74
2022/09/25 03:54:53;;;;;;;13.73;4.10;;;7.00;99.90;;;;;;4998413;28;20511;-73
2022/09/25 03:57:19;;;;;;;14.07;3.20;;;7.10;99.90;;;;;;4973978;28;204206;-74
2022/09/25 03:59:45;;;;;;;11.00;3.30;;;7.00;99.90;;;;;;5017515;28;20525;-74
2022/09/25 04:02:12;;;;;;;15.38;3.88;;;7.00;99.90;;;;;;4975005;28;207610;-75
2022/09/25 04:04:38;;;;;;;9.05;3.33;;;7.00;99.90;;;;;;5005049;28;20061;-74
2022/09/25 04:07:05;;;;;;;11.82;4.03;;;7.10;99.90;;;;;;4974548;28;210398;-74
2022/09/25 04:09:31;;;;;;;15.48;4.22;;;7.10;99.90;;;;;;5006785;28;20058;-74
2022/09/25 04:11:57;;;;;;;11.93;3.60;;;7.20;99.90;;;;;;4993047;28;198914;-74
2022/09/25 04:14:23;;;;;;;13.88;3.22;;;7.20;99.90;;;;;;5005524;28;20061;-74
2022/09/25 04:16:50;;;;;;;11.23;3.10;;;7.20;99.90;;;;;;4991418;28;202933;-74
2022/09/25 04:19:16;;;;;;;15.05;3.40;;;7.20;99.90;;;;;;4988949;28;20046;-74
2022/09/25 04:21:42;;;;;;;12.30;2.90;;;7.20;99.90;;;;;;4980701;28;210051;-74
2022/09/25 04:26:54;;;;;;;11.15;2.92;;;7.10;99.90;;;;;;4989045;28;211459;-73
2022/09/25 04:29:20;;;;;;;11.23;3.08;;;7.10;99.90;;;;;;5007241;28;20054;-72
2022/09/25 04:33:44;;;;;;;12.77;3.20;;;7.00;99.90;;;;;;4979094;28;219163;-73
2022/09/25 04:34:33;;;;;;;13.43;3.03;;;7.00;99.90;;;;;;5002745;28;20050;-74
2022/09/25 04:37:00;;;;;;;12.02;3.30;;;7.00;99.90;;;;;;4976164;28;183088;-74
2022/09/25 04:39:26;;;;;;;14.45;3.78;;;7.00;99.90;;;;;;5006300;28;20685;-73
2022/09/25 04:41:52;;;;;;;16.02;4.38;;;7.00;99.90;;;;;;4983829;28;65462;-73
2022/09/25 04:44:19;;;;;;;12.93;4.00;;;7.00;99.90;;;;;;5010545;28;20050;-73
2022/09/25 04:46:45;;;;;;;14.90;3.97;;;7.10;99.90;;;;;;4968007;28;212099;-74
2022/09/25 04:49:11;;;;;;;10.02;3.50;;;7.10;99.90;;;;;;5010032;28;20058;-74
2022/09/25 04:51:38;;;;;;;9.80;3.10;;;7.10;99.90;;;;;;4963383;28;220098;-74
2022/09/25 04:54:04;;;;;;;11.48;3.17;;;7.10;99.90;;;;;;4988890;28;20049;-74
2022/09/25 04:56:31;;;;;;;11.02;3.25;;;7.00;99.90;;;;;;4967649;28;210186;-74
2022/09/25 04:58:57;;;;;;;12.50;3.25;;;7.00;99.90;;;;;;5003697;28;20053;-74
2022/09/25 05:01:23;;;;;;;10.38;3.25;;;6.90;99.90;;;;;;4968747;28;224194;-74
2022/09/25 05:03:52;;;;;;;10.27;2.97;;;6.80;99.90;;;;;;4986734;28;20050;-75
2022/09/25 05:06:18;;;;;;;12.23;3.47;;;6.80;99.90;;;;;;4980820;28;214530;-74
2022/09/25 05:08:48;;;;;;;13.80;3.97;;;6.80;99.90;;;;;;5004574;28;20260;-74
2022/09/25 05:11:15;;;;;;;13.38;3.47;;;6.80;99.90;;;;;;4959876;28;209457;-74
2022/09/25 05:13:42;;;;;;;10.35;3.85;;;6.90;99.90;;;;;;4987737;28;20049;-73
2022/09/25 05:16:08;;;;;;;12.23;3.80;;;6.90;99.90;;;;;;4968307;28;235953;-74
2022/09/25 05:18:34;;;;;;;12.45;3.50;;;6.90;99.90;;;;;;4995535;28;20054;-74
2022/09/25 05:21:03;;;;;;;11.00;3.60;;;6.80;99.90;;;;;;4960538;28;207996;-74
2022/09/25 05:23:29;;;;;;;9.57;3.40;;;6.80;99.90;;;;;;5009486;28;20065;-74
2022/09/25 05:26:01;;;;;;;9.73;3.05;;;6.80;99.90;;;;;;4962914;28;209490;-75
2022/09/25 05:28:28;;;;;;;10.90;3.50;;;6.80;99.90;;;;;;5006907;28;20054;-74
2022/09/25 05:30:54;;;;;;;8.77;3.25;;;6.70;99.90;;;;;;4967581;28;206441;-74
2022/09/25 05:33:20;;;;;;;9.73;3.28;;;6.70;99.90;;;;;;4992932;28;20783;-74
2022/09/25 05:35:47;;;;;;;12.05;3.80;;;6.70;99.90;;;;;;4957041;28;206239;-74
2022/09/25 05:38:14;;;;;;;10.95;3.67;;;6.70;99.90;;;;;;5013222;28;20511;-74
2022/09/25 05:40:40;;;;;;;9.75;3.38;;;6.70;99.90;;;;;;4954531;28;205182;-74
2022/09/25 05:43:06;;;;;;;12.57;3.55;;;6.80;99.90;;;;;;5007822;28;20115;-74
2022/09/25 05:45:34;;;;;;;11.93;3.63;;;6.70;99.90;;;;;;4948576;28;214663;-73
2022/09/25 05:48:06;;;;;;;10.40;3.10;;;6.80;99.90;;;;;;5013336;28;20054;-74
2022/09/25 05:50:33;;;;;;;13.05;3.53;;;6.80;99.90;;;;;;4956932;28;213731;-74
2022/09/25 05:53:02;;;;;;;11.95;3.30;;;6.80;99.90;;;;;;5021064;28;20045;-74
2022/09/25 05:55:29;;;;;;;11.63;3.83;;;6.80;99.90;;;;;;4956732;28;209079;-74
2022/09/25 05:58:02;;;;;;;11.40;3.50;;;6.80;99.90;;;;;;5012400;28;20054;-74
2022/09/25 06:00:31;;;;;;;8.40;3.10;;;6.80;99.90;;;;;;4940741;28;209092;-74
2022/09/25 06:02:58;;;;;;;12.48;3.40;;;6.90;99.90;;;;;;5014490;28;20065;-74
2022/09/25 06:05:24;;;;;;;11.07;3.67;;;6.90;99.90;;;;;;4962600;28;215174;-74
2022/09/25 06:07:54;;;;;;;9.25;2.90;;;6.90;99.90;;;;;;5018830;28;20054;-74
2022/09/25 06:10:21;;;;;;;16.35;3.80;;;6.90;99.90;;;;;;4950215;28;230172;-74
2022/09/25 06:12:47;;;;;;;10.85;3.70;;;7.00;99.90;;;;;;5011317;28;20046;-75
2022/09/25 06:15:13;;;;;;;12.27;3.50;;;7.00;99.90;;;;;;4978288;28;208847;-74
2022/09/25 06:17:39;;;;;;;10.98;3.70;;;7.10;99.90;;;;;;4999414;28;20054;-74
2022/09/25 06:20:06;;;;;;;9.25;3.40;;;7.10;99.90;;;;;;5006777;28;20050;-73
2022/09/25 06:22:32;;;;;;;10.50;3.20;;;7.10;99.90;;;;;;4975912;28;205879;-74
2022/09/25 06:24:58;;;;;;;12.75;3.70;;;7.20;99.90;;;;;;4983365;28;20066;-75
2022/09/25 06:27:24;;;;;;;10.38;3.83;;;7.20;99.90;;;;;;4960069;28;206854;-74
2022/09/25 06:29:50;;;;;;;13.65;3.55;;;7.30;99.90;;;;;;4981489;28;20056;-73
2022/09/25 06:32:17;;;;;;;12.85;3.60;;;7.30;99.90;;;;;;4966855;28;212976;-74
2022/09/25 06:34:43;;;;;;;14.02;3.88;;;7.40;99.90;;;;;;4987026;28;20050;-74
2022/09/25 06:37:11;;;;;;;12.55;3.55;;;7.50;99.90;;;;;;4958799;28;207252;-74
2022/09/25 06:39:37;;;;;;;10.40;3.40;;;7.50;99.90;;;;;;4991506;28;20053;-73
2022/09/25 06:42:03;;;;;;;12.18;3.38;;;7.60;99.90;;;;;;4971900;28;213138;-74
2022/09/25 06:44:30;;;;;;;13.52;3.88;;;7.60;99.90;;;;;;5007827;28;20164;-74
2022/09/25 06:46:56;;;;;;;14.77;4.70;;;7.70;99.90;;;;;;4981485;28;206481;-74
2022/09/25 06:49:22;;;;;;;14.35;3.72;;;7.80;99.90;;;;;;4993385;28;20061;-74
2022/09/25 06:51:50;;;;;;;13.90;4.30;;;7.90;99.90;;;;;;4978647;28;212751;-74
2022/09/25 06:54:16;;;;;;;17.70;4.35;;;8.00;99.90;;;;;;5011184;28;20056;-74
2022/09/25 06:56:42;;;;;;;13.15;4.22;;;8.10;99.90;;;;;;4983985;28;207649;-74
2022/09/25 06:59:09;;;;;;;12.13;4.13;;;8.20;99.90;;;;;;5015010;28;20050;-74
2022/09/25 07:01:35;;;;;;;12.48;4.10;;;8.30;99.90;;;;;;4978153;28;204931;-74
2022/09/25 07:04:02;;;;;;;12.50;4.00;;;8.30;99.90;;;;;;5011004;28;20042;-75
2022/09/25 07:06:30;;;;;;;14.20;4.43;;;8.40;99.90;;;;;;4974509;28;162862;-74
2022/09/25 07:08:56;;;;;;;16.55;4.03;;;8.60;99.90;;;;;;5006463;28;20058;-74
2022/09/25 07:11:24;;;;;;;13.25;3.97;;;8.70;99.90;;;;;;4970316;28;233383;-74
2022/09/25 07:13:53;;;;;;;10.75;4.32;;;8.80;99.90;;;;;;5032033;28;20046;-74
2022/09/25 07:16:25;;;;;;;18.27;3.92;;;8.90;99.90;;;;;;4986971;28;207267;-75
2022/09/25 07:18:57;;;;;;;11.27;3.70;;;9.00;99.90;;;;;;5016995;28;20053;-74
2022/09/25 07:21:24;;;;;;;14.82;4.13;;;9.10;99.90;;;;;;4968512;28;206404;-74
2022/09/25 07:23:51;;;;;;;11.52;3.42;;;9.10;99.90;;;;;;5008940;28;20074;-74
2022/09/25 07:26:21;;;;;;;12.70;3.88;;;9.20;99.90;;;;;;4971767;28;207299;-74
2022/09/25 07:28:53;;;;;;;14.35;3.95;;;9.30;99.90;;;;;;5014347;28;20054;-74
2022/09/25 07:31:25;;;;;;;13.18;4.00;;;9.40;99.90;;;;;;4966451;28;219270;-75
2022/09/25 07:33:52;;;;;;;16.63;4.22;;;9.50;99.90;;;;;;5004876;28;20568;-74
2022/09/25 07:36:19;;;;;;;13.75;4.13;;;9.70;99.90;;;;;;4971228;28;210697;-73
2022/09/25 07:38:49;;;;;;;15.50;3.80;;;9.80;99.90;;;;;;5004518;28;20050;-73
2022/09/25 07:41:17;;;;;;;14.77;3.75;;;9.90;99.90;;;;;;4978869;28;207099;-73
2022/09/25 07:43:43;;;;;;;16.45;3.80;;;10.00;99.90;;;;;;4997601;28;20057;-74
2022/09/25 07:46:11;;;;;;;13.20;3.45;;;10.10;99.90;;;;;;4979088;28;208237;-71
2022/09/25 07:48:37;;;;;;;14.85;3.15;;;10.30;99.90;;;;;;5017537;28;20042;-71
2022/09/25 07:51:06;;;;;;;16.55;3.70;;;10.40;99.90;;;;;;4967618;28;210964;-76
2022/09/25 07:53:32;;;;;;;13.48;2.90;;;10.60;99.90;;;;;;5035539;28;20518;-75
2022/09/25 07:56:00;;;;;;;11.80;2.22;;;10.70;99.90;;;;;;4972120;28;151162;-75
2022/09/25 07:58:27;;;;;;;12.68;2.60;;;10.80;99.90;;;;;;5022350;28;20411;-74
2022/09/25 08:00:58;;;;;;;14.35;2.45;;;11.00;99.90;;;;;;4965319;28;207498;-74
2022/09/25 08:03:25;;;;;;;9.52;2.10;;;11.10;99.90;;;;;;5030126;28;20053;-74
2022/09/25 08:06:03;;;;;;;10.43;1.65;;;11.20;99.90;;;;;;4981906;28;209364;-75
2022/09/25 08:08:30;;;;;;;14.00;1.98;;;11.40;99.90;;;;;;4998363;28;20050;-76
2022/09/25 08:11:01;;;;;;;10.60;1.80;;;11.50;99.90;;;;;;4965370;28;206076;-75
2022/09/25 08:13:28;;;;;;;11.10;1.65;;;11.70;99.90;;;;;;5010452;28;20503;-75
2022/09/25 08:15:55;;;;;;;12.45;1.60;;;12.00;99.90;;;;;;4953751;28;205422;-75
2022/09/25 08:18:21;;;;;;;15.02;2.00;;;12.50;99.90;;;;;;5028064;28;20400;-75
2022/09/25 08:20:47;;;;;;;10.75;1.40;;;13.20;99.90;;;;;;4977198;28;155812;-74
2022/09/25 08:23:13;;;;;;;10.15;1.33;;;14.00;99.90;;;;;;5018839;28;20530;-75
2022/09/25 08:25:39;;;;;;;9.50;1.33;;;14.60;99.90;;;;;;4969568;28;208017;-75
2022/09/25 08:28:05;;;;;;;9.93;1.67;;;15.30;99.90;;;;;;5016236;28;20058;-74
2022/09/25 08:30:31;;;;;;;11.32;1.25;;;14.80;99.90;;;;;;4979860;28;207093;-74
2022/09/25 08:32:57;;;;;;;10.27;1.30;;;15.00;99.90;;;;;;5016812;28;20045;-74
2022/09/25 08:35:24;;;;;;;7.33;1.10;;;14.80;99.90;;;;;;4966090;28;206613;-74
2022/09/25 08:37:51;;;;;;;11.48;1.40;;;14.70;99.90;;;;;;5021269;28;20053;-74
2022/09/25 08:40:19;;;;;;;11.23;1.20;;;14.90;99.90;;;;;;4953599;28;207461;-74
2022/09/25 08:42:49;;;;;;;11.00;1.33;;;15.00;99.90;;;;;;4994202;28;20056;-74
2022/09/25 08:49:13;;;;;;;9.65;1.70;;;15.40;99.90;;;;;;5012022;28;20102;-73
2022/09/25 08:51:20;;;;;;;11.02;1.20;;;15.30;99.90;;;;;;4986078;28;205826;-74
2022/09/25 08:53:47;;;;;;;8.77;1.50;;;15.30;99.90;;;;;;5006359;28;20419;-74
2022/09/25 08:56:16;;;;;;;8.43;1.20;;;15.20;99.90;;;;;;4987342;28;208148;-74
2022/09/25 08:58:50;;;;;;;8.88;1.10;;;15.10;99.90;;;;;;5018242;28;20060;-74
2022/09/25 09:01:23;;;;;;;8.05;1.30;;;15.20;99.90;;;;;;4961816;28;210719;-74
2022/09/25 09:04:05;;;;;;;9.63;1.33;;;15.10;99.90;;;;;;5006173;28;20061;-74
2022/09/25 09:06:33;;;;;;;8.25;1.10;;;15.20;99.90;;;;;;4961952;28;208260;-75
2022/09/25 09:09:06;;;;;;;8.63;1.05;;;15.30;99.90;;;;;;5010710;28;20042;-75
2022/09/25 09:11:42;;;;;;;7.65;1.20;;;15.30;99.90;;;;;;4962972;28;157488;-75
2022/09/25 09:14:19;;;;;;;10.60;1.05;;;15.30;99.90;;;;;;4999857;28;20496;-75
2022/09/25 09:17:16;;;;;;;7.85;1.20;;;15.20;99.90;;;;;;4959319;28;206230;-75
2022/09/25 09:19:50;;;;;;;6.43;1.20;;;15.20;99.90;;;;;;5000272;28;20056;-75
2022/09/25 09:22:23;;;;;;;9.95;1.10;;;15.10;99.90;;;;;;4957818;28;219467;-74
2022/09/25 09:25:08;;;;;;;7.85;1.00;;;15.20;99.90;;;;;;5002970;28;20062;-74
2022/09/25 09:27:52;;;;;;;8.30;1.10;;;15.70;99.90;;;;;;4947228;28;209926;-71
2022/09/25 09:30:26;;;;;;;8.80;1.13;;;15.50;99.90;;;;;;4935241;28;209770;-73
2022/09/25 09:33:14;;;;;;;7.38;0.93;;;15.70;99.90;;;;;;4973773;28;20503;-72
2022/09/25 09:35:40;;;;;;;7.80;1.00;;;16.10;99.90;;;;;;4952967;28;126064;-72
2022/09/25 09:38:27;;;;;;;7.82;0.93;;;16.50;99.90;;;;;;4994650;28;20054;-72
2022/09/25 09:40:59;;;;;;;6.88;0.80;;;17.00;99.90;;;;;;4944193;28;206594;-72
2022/09/25 09:43:40;;;;;;;6.72;0.90;;;17.30;99.90;;;;;;4983743;28;20058;-73
2022/09/25 09:46:14;;;;;;;8.80;1.00;;;18.20;99.90;;;;;;4940653;28;206760;-73
2022/09/25 09:48:58;;;;;;;6.97;0.90;;;18.80;99.90;;;;;;4980385;28;20066;-73
2022/09/25 09:51:33;;;;;;;5.57;0.90;;;18.80;99.90;;;;;;4936764;28;214302;-73
2022/09/25 09:54:11;;;;;;;7.32;1.17;;;19.20;99.90;;;;;;4974934;28;20063;-73
2022/09/25 09:56:42;;;;;;;5.70;1.00;;;18.90;99.90;;;;;;4958077;28;213000;-72
2022/09/25 09:59:15;;;;;;;6.70;0.85;;;18.80;99.90;;;;;;5001624;28;20061;-73
2022/09/25 10:01:44;;;;;;;5.85;0.80;;;18.50;99.90;;;;;;4993441;28;131235;-73
2022/09/25 10:04:19;;;;;;;7.38;1.02;;;18.30;99.90;;;;;;4986473;28;20062;-73
2022/09/25 10:06:56;;;;;;;8.18;1.10;;;17.90;99.90;;;;;;4960610;28;209437;-72
2022/09/25 10:09:24;;;;;;;6.90;0.98;;;17.80;99.90;;;;;;4998434;28;20081;-73
2022/09/25 10:12:10;;;;;;;6.07;0.98;;;17.70;99.90;;;;;;4963000;28;212984;-73
2022/09/25 10:14:41;;;;;;;7.60;1.02;;;17.60;99.90;;;;;;4999525;28;20058;-73
2022/09/25 10:17:10;;;;;;;;;;;17.60;99.90;;;;;;4945254;28;209372;-73
2022/09/25 10:20:11;;;;;;;9.27;1.38;;;17.60;99.90;;;;;;4993797;28;19922;-73
2022/09/25 10:22:39;;;;;;;;;;;17.60;99.90;;;;;;4959808;28;174659;-73
2022/09/25 10:25:06;;;;;;;6.18;1.10;;;17.50;99.90;;;;;;5030631;28;19953;-73
2022/09/25 10:27:40;;;;;;;5.88;0.90;;;17.70;99.90;;;;;;4949126;28;167019;-73
2022/09/25 10:30:09;;;;;;;7.65;0.95;;;17.70;99.90;;;;;;5009169;28;20849;-71
2022/09/25 10:32:54;;;;;;;8.63;1.27;;;17.60;99.90;;;;;;4918010;28;212173;-73
2022/09/25 10:35:24;;;;;;;6.37;1.10;;;17.60;99.90;;;;;;4949669;28;215620;-72
2022/09/25 10:37:55;;;;;;;7.68;1.02;;;17.40;99.90;;;;;;4986359;28;20054;-72
2022/09/25 10:40:30;;;;;;;;;;;17.10;99.90;;;;;;4955106;28;209819;-73
2022/09/25 10:43:05;;;;;;;10.68;1.27;;;16.80;99.90;;;;;;4991191;28;20488;-72
2022/09/25 10:45:34;;;;;;;8.70;1.00;;;16.70;99.90;;;;;;4940227;28;211689;-74
2022/09/25 10:51:07;;;;;;;7.32;1.00;;;16.50;99.90;;;;;;4946354;28;192753;-73
2022/09/25 10:53:33;;;;;;;5.90;1.00;;;16.50;99.90;;;;;;4988051;28;20054;-73
2022/09/25 10:56:10;;;;;;;8.68;1.45;;;16.40;99.90;;;;;;4966926;28;205476;-72
2022/09/25 10:58:53;;;;;;;9.73;1.30;;;16.10;99.90;;;;;;4988027;28;20065;-72
2022/09/25 11:01:27;;;;;;;6.50;1.02;;;16.00;99.90;;;;;;4964197;28;207632;-71
2022/09/25 11:03:56;;;;;;;7.85;1.02;;;15.60;99.90;;;;;;4986825;28;20065;-72
2022/09/25 11:06:28;;;;;;;6.25;1.13;;;15.60;99.90;;;;;;4954149;28;216450;-73
2022/09/25 11:09:21;;;;;;;8.73;1.10;;;15.70;99.90;;;;;;4994368;28;20053;-72
2022/09/25 11:11:51;;;;;;;9.38;1.30;;;15.70;99.90;;;;;;4969678;28;206252;-72
2022/09/25 11:14:21;;;;;;;7.00;0.95;;;15.60;99.90;;;;;;4989147;28;20058;-72
2022/09/25 11:16:53;;;;;;;7.57;0.87;;;15.60;99.90;;;;;;4969708;28;165760;-71
2022/09/25 11:19:27;;;;;;;7.13;0.98;;;15.70;99.90;;;;;;5019502;28;20062;-72
2022/09/25 11:21:59;;;;;;;6.28;0.93;;;15.80;99.90;;;;;;4985741;28;206289;-71
2022/09/25 11:24:51;;;;;;;9.00;1.15;;;16.00;99.90;;;;;;5016153;28;20057;-72
2022/09/25 11:27:21;;;;;;;8.15;1.00;;;16.20;99.90;;;;;;4984134;28;187259;-71
2022/09/25 11:30:02;;;;;;;10.15;2.22;;;16.90;99.90;;;;;;5002691;28;20062;-72
2022/09/25 11:32:28;;;;;;;;;;;17.90;99.90;;;;;;4989838;28;212635;-72
2022/09/25 11:35:13;;;;;;;5.93;0.90;;;18.90;99.90;;;;;;5014090;28;19932;-72
2022/09/25 11:37:57;;;;;;;6.82;0.90;;;19.60;99.90;;;;;;4974998;28;222548;-72
2022/09/25 11:43:22;;;;;;;5.10;0.80;;;21.10;99.90;;;;;;5025080;28;20072;-72
2022/09/25 11:45:58;;;;;;;7.50;1.45;;;21.90;99.90;;;;;;4965390;28;220279;-72
2022/09/25 11:48:39;;;;;;;5.97;0.88;;;22.50;97.80;;;;;;5002374;28;20065;-72
2022/09/25 11:51:23;;;;;;;5.00;0.90;;;23.00;99.90;;;;;;4963814;28;250550;-73
2022/09/25 11:54:23;;;;;;;5.07;1.00;;;23.10;98.50;;;;;;5010005;28;20045;-72
2022/09/25 11:56:59;;;;;;;7.50;0.90;;;23.50;97.90;;;;;;4958358;28;222871;-72
2022/09/25 11:59:40;;;;;;;5.40;1.05;;;23.70;97.40;;;;;;5001706;28;21230;-72
2022/09/25 12:02:43;;;;;;;7.07;1.17;;;23.90;96.10;;;;;;4966596;28;210211;-70
2022/09/25 12:05:37;;;;;;;4.65;0.80;;;23.40;91.10;;;;;;4973384;28;197045;-71
2022/09/25 12:08:31;;;;;;;3.95;0.80;;;22.30;94.20;;;;;;4970342;28;214844;-71
2022/09/25 12:11:48;;;;;;;4.57;0.80;;;21.30;92.90;;;;;;4973168;28;206026;-71
2022/09/25 12:14:33;;;;;;;5.03;0.77;;;20.30;95.50;;;;;;4917269;29;20052;-71
2022/09/25 12:17:17;;;;;;;5.53;0.90;;;19.70;96.00;;;;;;4873022;28;206342;-71
2022/09/25 12:20:13;;;;;;;4.85;0.65;;;19.40;95.80;;;;;;4919166;28;20052;-71
2022/09/25 12:23:01;;;;;;;2.92;0.68;;;19.90;96.20;;;;;;4871471;29;172911;-71
2022/09/25 12:26:18;;;;;;;3.50;0.60;;;20.90;95.50;;;;;;4826132;29;209128;-71
2022/09/25 12:29:02;;;;;;;4.38;0.80;;;22.00;93.20;;;;;;4860697;29;20076;-70
2022/09/25 12:31:38;;;;;;;4.22;0.80;;;23.00;92.10;;;;;;4842643;29;218170;-70
2022/09/25 12:34:17;;;;;;;4.38;0.70;;;23.50;89.60;;;;;;4870078;29;20053;-70
2022/09/25 12:37:09;;;;;;;4.45;0.70;;;23.10;84.20;;;;;;4822204;29;208271;-72
2022/09/25 12:39:47;;;;;;;6.32;0.85;;;22.80;88.70;;;;;;4887572;29;20056;-72
2022/09/25 12:42:28;;;;;;;4.45;0.68;;;23.20;90.70;;;;;;4826845;29;210789;-70
2022/09/25 12:45:04;;;;;;;3.72;0.70;;;24.10;92.10;;;;;;4870403;29;20075;-71
2022/09/25 12:47:33;;;;;;;5.47;0.70;;;24.80;83.20;;;;;;4847513;29;209054;-71
2022/09/25 12:50:02;;;;;;;5.35;0.88;;;25.30;90.10;;;;;;4919718;29;20064;-70
2022/09/25 12:52:35;;;;;;;6.93;0.88;;;24.30;88.30;;;;;;4876809;29;203637;-72
2022/09/25 12:55:05;;;;;;;6.93;0.93;;;24.10;87.40;;;;;;4915901;29;20048;-72
2022/09/25 12:57:50;;;;;;;6.50;0.90;;;24.70;86.90;;;;;;4862372;29;187638;-71
2022/09/25 13:00:19;;;;;;;5.20;0.73;;;24.80;78.50;;;;;;4878816;29;210395;-70
2022/09/25 13:03:21;;;;;;;5.10;0.80;;;25.10;86.90;;;;;;4918530;29;20063;-71
2022/09/25 13:06:08;;;;;;;5.38;0.82;;;26.20;79.80;;;;;;4893503;28;202241;-72
2022/09/25 13:08:50;;;;;;;5.43;0.80;;;25.90;76.30;;;;;;4943825;28;20051;-71
2022/09/25 13:11:44;;;;;;;5.85;0.90;;;25.60;79.70;;;;;;4903965;28;210136;-71
2022/09/25 13:14:31;;;;;;;6.53;1.00;;;24.90;78.70;;;;;;4934044;29;20055;-71
2022/09/25 13:16:57;;;;;;;5.53;0.85;;;24.20;81.90;;;;;;4959374;28;207957;-71
2022/09/25 13:19:29;;;;;;;4.10;0.60;;;23.40;85.80;;;;;;5007538;28;20072;-71
2022/09/25 13:22:20;;;;;;;6.70;1.02;;;23.00;85.80;;;;;;4972507;28;210122;-71
2022/09/25 13:24:51;;;;;;;6.00;0.80;;;22.50;82.00;;;;;;4965419;28;20054;-71
2022/09/25 13:27:23;;;;;;;6.15;0.80;;;21.80;86.70;;;;;;4917036;28;216620;-71
2022/09/25 13:29:56;;;;;;;6.05;0.90;;;21.10;86.90;;;;;;4960434;28;20054;-71
2022/09/25 13:32:27;;;;;;;5.95;0.90;;;20.70;89.40;;;;;;4912445;28;208171;-70